^^
Meteo Knjazevac Station Historical Data
Daily Summary for January 3, 2022 Units:  Metric    English   Both
Daily Weekly Monthly Yearly Custom
  High: Low: Average:
Temperature: 33.7 °C 12.9 °C 23.4 °C
Dew Point: 20.1 °C 12.1 °C 15.7 °C
Humidity: 96% 33% 66%
Wind Speed: 11.3km/h 0km/h 2.9km/h
Wind Gust: 24.1km/h - -
Wind- - South
Pressure: 1019.2 hPa 1015.5 hPa -
Precipitation: 0 mm    
Historical Graphs
 
 
Tabular Data for January 3, 2022
Time Temperature Dew Point Pressure Wind Wind Speed Wind Gust Humidity Rainfall Rate (Hourly) solar Conditions
00:00 18.3 °C 14.9 °C 1017.2 hPa Calm   3.2 km/h 81% 0 mm 0 W/m2
00:10 18 °C 14.7 °C 1017.2 hPa NW 1.6 km/h 3.2 km/h 81% 0 mm 0 W/m2
00:20 17.7 °C 14.8 °C 1017.2 hPa Calm   1.6 km/h 83% 0 mm 0 W/m2
00:30 17.4 °C 14.5 °C 1017.2 hPa Calm   1.6 km/h 83% 0 mm 0 W/m2
00:40 17.2 °C 14.5 °C 1017.2 hPa NW 1.6 km/h 3.2 km/h 84% 0 mm 0 W/m2
00:50 17 °C 14.3 °C 1017.2 hPa Calm   3.2 km/h 84% 0 mm 0 W/m2
01:00 16.8 °C 14.3 °C 1017.2 hPa Calm   3.2 km/h 85% 0 mm 0 W/m2
01:10 16.6 °C 14.1 °C 1017.2 hPa WNW 1.6 km/h 3.2 km/h 85% 0 mm 0 W/m2
01:20 16.3 °C 13.9 °C 1017.5 hPa West 1.6 km/h 3.2 km/h 86% 0 mm 0 W/m2
01:40 15.8 °C 13.8 °C 1017.5 hPa WSW 3.2 km/h 4.8 km/h 88% 0 mm 0 W/m2
01:50 15.7 °C 13.7 °C 1017.5 hPa West 3.2 km/h 6.4 km/h 88% 0 mm 0 W/m2
02:00 15.8 °C 13.8 °C 1017.5 hPa West 1.6 km/h 6.4 km/h 88% 0 mm 0 W/m2
02:10 15.6 °C 13.6 °C 1017.5 hPa Calm   3.2 km/h 88% 0 mm 0 W/m2
02:20 15.5 °C 13.7 °C 1017.5 hPa Calm   1.6 km/h 89% 0 mm 0 W/m2
02:30 15.3 °C 13.5 °C 1017.5 hPa Calm   3.2 km/h 89% 0 mm 0 W/m2
02:50 14.9 °C 13.3 °C 1017.5 hPa Calm   3.2 km/h 90% 0 mm 0 W/m2
03:00 14.8 °C 13.3 °C 1017.5 hPa Calm   3.2 km/h 91% 0 mm 0 W/m2
03:10 14.7 °C 13.1 °C 1017.5 hPa West 1.6 km/h 3.2 km/h 90% 0 mm 0 W/m2
03:20 14.5 °C 13.1 °C 1017.5 hPa NW 1.6 km/h 3.2 km/h 91% 0 mm 0 W/m2
03:40 14.1 °C 12.7 °C 1017.5 hPa WSW 1.6 km/h 3.2 km/h 91% 0 mm 0 W/m2
03:50 14 °C 12.9 °C 1017.5 hPa WNW 1.6 km/h 3.2 km/h 93% 0 mm 0 W/m2
04:10 13.8 °C 12.7 °C 1017.5 hPa Calm   3.2 km/h 93% 0 mm 0 W/m2
04:20 13.7 °C 12.8 °C 1017.5 hPa Calm   1.6 km/h 94% 0 mm 0 W/m2
04:40 13.7 °C 12.8 °C 1017.8 hPa Calm   1.6 km/h 94% 0 mm 0 W/m2
04:50 13.6 °C 12.7 °C 1017.8 hPa Calm   3.2 km/h 94% 0 mm 0 W/m2
05:10 13.5 °C 12.6 °C 1017.8 hPa West 1.6 km/h 3.2 km/h 94% 0 mm 0 W/m2
05:20 13.3 °C 12.3 °C 1017.8 hPa West 1.6 km/h 4.8 km/h 94% 0 mm 0 W/m2
05:30 13.1 °C 12.2 °C 1017.8 hPa West 1.6 km/h 3.2 km/h 94% 0 mm 7 W/m2
05:40 13 °C 12.1 °C 1017.8 hPa Calm   3.2 km/h 94% 0 mm 14 W/m2
05:50 12.9 °C 12.1 °C 1018.2 hPa West 3.2 km/h 6.4 km/h 95% 0 mm 21 W/m2
06:00 13.1 °C 12.3 °C 1018.2 hPa West 1.6 km/h 8 km/h 95% 0 mm 29 W/m2
06:20 13.1 °C 12.3 °C 1018.2 hPa Calm   3.2 km/h 95% 0 mm 77 W/m2
06:40 13.3 °C 12.5 °C 1018.5 hPa Calm   1.6 km/h 95% 0 mm 126 W/m2
06:50 13.4 °C 12.6 °C 1018.5 hPa Calm   3.2 km/h 95% 0 mm 151 W/m2
07:00 13.7 °C 13.1 °C 1018.5 hPa Calm   3.2 km/h 96% 0 mm 180 W/m2
07:20 14.6 °C 13.6 °C 1018.5 hPa Calm   3.2 km/h 94% 0 mm 246 W/m2
07:40 15.5 °C 14.1 °C 1018.5 hPa Calm   8 km/h 91% 0 mm 311 W/m2
07:50 16.2 °C 14.6 °C 1018.8 hPa West 1.6 km/h 3.2 km/h 90% 0 mm 345 W/m2
08:00 16.8 °C 14.8 °C 1018.8 hPa Calm   3.2 km/h 88% 0 mm 377 W/m2
08:10 17.5 °C 15.1 °C 1018.8 hPa North 1.6 km/h 4.8 km/h 86% 0 mm 354 W/m2
08:20 18.2 °C 15.4 °C 1018.8 hPa SW 1.6 km/h 4.8 km/h 84% 0 mm 459 W/m2
08:30 18.8 °C 15.8 °C 1018.8 hPa Calm   4.8 km/h 83% 0 mm 475 W/m2
08:50 20.6 °C 16.4 °C 1018.8 hPa East 4.8 km/h 9.7 km/h 77% 0 mm 311 W/m2
09:00 21.1 °C 16.9 °C 1019.2 hPa NE 4.8 km/h 11.3 km/h 77% 0 mm 336 W/m2
09:10 21.8 °C 17.2 °C 1019.2 hPa NNE 1.6 km/h 8 km/h 75% 0 mm 578 W/m2
09:20 22.3 °C 17 °C 1019.2 hPa NE 3.2 km/h 11.3 km/h 72% 0 mm 304 W/m2
09:30 22.5 °C 17.2 °C 1018.8 hPa NE 3.2 km/h 9.7 km/h 72% 0 mm 583 W/m2
09:40 23.5 °C 17.5 °C 1018.8 hPa NE 3.2 km/h 12.9 km/h 69% 0 mm 704 W/m2
09:50 24.5 °C 18.2 °C 1018.8 hPa North 4.8 km/h 12.9 km/h 68% 0 mm 728 W/m2
10:00 25 °C 17.7 °C 1018.8 hPa NE 4.8 km/h 16.1 km/h 64% 0 mm 750 W/m2
10:10 25.5 °C 17.9 °C 1018.8 hPa NE 8 km/h 16.1 km/h 63% 0 mm 772 W/m2
10:20 26.1 °C 18.5 °C 1018.8 hPa NNE 8 km/h 11.3 km/h 63% 0 mm 792 W/m2
10:30 26.6 °C 18.7 °C 1018.8 hPa ENE 4.8 km/h 12.9 km/h 62% 0 mm 811 W/m2
10:40 27.2 °C 19.3 °C 1018.8 hPa NE 4.8 km/h 12.9 km/h 62% 0 mm 829 W/m2
11:10 28.3 °C 19.5 °C 1018.5 hPa NNE 8 km/h 14.5 km/h 59% 0 mm 307 W/m2
11:20 28.7 °C 19.9 °C 1018.5 hPa NNE 4.8 km/h 11.3 km/h 59% 0 mm 150 W/m2
11:40 29.4 °C 19.4 °C 1018.2 hPa North 4.8 km/h 14.5 km/h 55% 0 mm 906 W/m2
11:50 29.6 °C 19.3 °C 1018.2 hPa NNE 4.8 km/h 12.9 km/h 54% 0 mm 914 W/m2
12:00 30 °C 19.7 °C 1018.2 hPa North 1.6 km/h 12.9 km/h 54% 0 mm 920 W/m2
12:10 30.1 °C 20.1 °C 1017.8 hPa NW 3.2 km/h 12.9 km/h 55% 0 mm 924 W/m2
12:20 30.5 °C 19.8 °C 1017.8 hPa North 4.8 km/h 19.3 km/h 53% 0 mm 927 W/m2
12:40 30.9 °C 19.3 °C 1017.8 hPa North 3.2 km/h 19.3 km/h 50% 0 mm 929 W/m2
12:50 31.1 °C 18.8 °C 1017.5 hPa North 8 km/h 20.9 km/h 48% 0 mm 927 W/m2
13:10 31.5 °C 18.1 °C 1017.2 hPa NNE 4.8 km/h 19.3 km/h 45% 0 mm 920 W/m2
13:20 31.6 °C 18.9 °C 1017.2 hPa NE 3.2 km/h 12.9 km/h 47% 0 mm 913 W/m2
13:30 31.9 °C 19.2 °C 1017.2 hPa North 4.8 km/h 19.3 km/h 47% 0 mm 906 W/m2
13:40 31.9 °C 18.1 °C 1017.2 hPa NNW 3.2 km/h 14.5 km/h 44% 0 mm 896 W/m2
13:50 32.1 °C 17.9 °C 1016.8 hPa NNE 3.2 km/h 20.9 km/h 43% 0 mm 886 W/m2
14:00 32.2 °C 18.1 °C 1016.8 hPa NNE 4.8 km/h 19.3 km/h 43% 0 mm 873 W/m2
14:20 32.5 °C 17.2 °C 1016.5 hPa North 3.2 km/h 20.9 km/h 40% 0 mm 845 W/m2
14:30 32.7 °C 16.9 °C 1016.5 hPa NNW 9.7 km/h 20.9 km/h 39% 0 mm 828 W/m2
14:40 33 °C 16.8 °C 1016.5 hPa NNW 3.2 km/h 14.5 km/h 38% 0 mm 811 W/m2
14:50 33.1 °C 16.4 °C 1016.5 hPa North 11.3 km/h 22.5 km/h 37% 0 mm 792 W/m2
15:00 33.2 °C 15.7 °C 1016.1 hPa North 8 km/h 20.9 km/h 35% 0 mm 771 W/m2
15:10 33.5 °C 15.9 °C 1016.1 hPa North 8 km/h 16.1 km/h 35% 0 mm 750 W/m2
15:30 33.6 °C 15.6 °C 1016.1 hPa North 8 km/h 19.3 km/h 34% 0 mm 703 W/m2
15:40 33.6 °C 15.6 °C 1016.1 hPa North 4.8 km/h 24.1 km/h 34% 0 mm 679 W/m2
16:00 33.7 °C 15.7 °C 1016.1 hPa NNW 3.2 km/h 14.5 km/h 34% 0 mm 626 W/m2
16:10 33.5 °C 15 °C 1016.1 hPa North 8 km/h 19.3 km/h 33% 0 mm 599 W/m2
16:30 33.6 °C 15.6 °C 1015.8 hPa North 8 km/h 16.1 km/h 34% 0 mm 542 W/m2
16:40 33.5 °C 15 °C 1015.8 hPa North 8 km/h 12.9 km/h 33% 0 mm 513 W/m2
16:50 33.5 °C 16.8 °C 1015.8 hPa North 3.2 km/h 16.1 km/h 37% 0 mm 483 W/m2
17:00 33.3 °C 17.1 °C 1015.8 hPa NNE 4.8 km/h 11.3 km/h 38% 0 mm 452 W/m2
17:30 32.3 °C 16.2 °C 1015.5 hPa NE 3.2 km/h 14.5 km/h 38% 0 mm 352 W/m2
17:40 32.5 °C 16.8 °C 1015.5 hPa NNE 3.2 km/h 14.5 km/h 39% 0 mm 329 W/m2
17:50 32.6 °C 16.4 °C 1015.5 hPa NNE 3.2 km/h 12.9 km/h 38% 0 mm 284 W/m2
18:10 32.5 °C 16.8 °C 1015.5 hPa North 1.6 km/h 11.3 km/h 39% 0 mm 215 W/m2
18:20 32.2 °C 16.5 °C 1015.5 hPa NNW 4.8 km/h 11.3 km/h 39% 0 mm 188 W/m2
18:30 32 °C 16.3 °C 1015.5 hPa North 3.2 km/h 16.1 km/h 39% 0 mm 167 W/m2
18:40 31.7 °C 16.1 °C 1015.8 hPa North 9.7 km/h 14.5 km/h 39% 0 mm 135 W/m2
18:50 31.4 °C 16.2 °C 1015.8 hPa North 4.8 km/h 12.9 km/h 40% 0 mm 108 W/m2
19:00 31 °C 16.6 °C 1015.8 hPa North 3.2 km/h 12.9 km/h 42% 0 mm 82 W/m2
19:10 30.6 °C 16.6 °C 1016.1 hPa NNW 3.2 km/h 11.3 km/h 43% 0 mm 48 W/m2
19:20 30.1 °C 16.5 °C 1015.8 hPa Calm   8 km/h 44% 0 mm 28 W/m2
19:30 29.4 °C 15.5 °C 1016.1 hPa NNW 1.6 km/h 9.7 km/h 43% 0 mm 19 W/m2
19:50 28.4 °C 16.3 °C 1016.1 hPa NNW 1.6 km/h 8 km/h 48% 0 mm 5 W/m2
20:00 27.8 °C 16.1 °C 1016.1 hPa NW 1.6 km/h 3.2 km/h 49% 0 mm 0 W/m2
20:10 27.1 °C 16.4 °C 1016.5 hPa SSW 1.6 km/h 4.8 km/h 52% 0 mm 0 W/m2
20:20 26.7 °C 16.6 °C 1016.5 hPa WSW 1.6 km/h 4.8 km/h 54% 0 mm 0 W/m2
20:30 26.2 °C 16.4 °C 1016.8 hPa WSW 1.6 km/h 3.2 km/h 55% 0 mm 0 W/m2
20:40 25.6 °C 16.4 °C 1016.8 hPa SW 1.6 km/h 4.8 km/h 57% 0 mm 0 W/m2
20:50 25 °C 16.4 °C 1016.8 hPa SSW 1.6 km/h 4.8 km/h 59% 0 mm 0 W/m2
21:00 24 °C 15.7 °C 1016.8 hPa South 4.8 km/h 8 km/h 60% 0 mm 0 W/m2
21:10 23.4 °C 15.7 °C 1017.2 hPa South 3.2 km/h 6.4 km/h 62% 0 mm 0 W/m2
21:20 23 °C 15.6 °C 1017.2 hPa South 1.6 km/h 8 km/h 63% 0 mm 0 W/m2
21:40 22.4 °C 15.5 °C 1017.2 hPa South 4.8 km/h 8 km/h 65% 0 mm 0 W/m2
22:20 21.5 °C 15.6 °C 1017.5 hPa WSW 1.6 km/h 3.2 km/h 69% 0 mm 0 W/m2
22:30 21.3 °C 15.6 °C 1017.5 hPa South 3.2 km/h 6.4 km/h 70% 0 mm 0 W/m2
22:50 20.5 °C 15.5 °C 1017.5 hPa Calm   6.4 km/h 73% 0 mm 0 W/m2
23:00 20.4 °C 15.6 °C 1017.5 hPa ESE 1.6 km/h 4.8 km/h 74% 0 mm 0 W/m2
23:10 20.3 °C 15.5 °C 1017.5 hPa WSW 1.6 km/h 3.2 km/h 74% 0 mm 0 W/m2
23:20 20 °C 15.4 °C 1017.5 hPa WNW 1.6 km/h 3.2 km/h 75% 0 mm 0 W/m2
23:30 19.8 °C 15.7 °C 1017.5 hPa Calm   3.2 km/h 77% 0 mm 0 W/m2
23:40 19.6 °C 15.7 °C 1017.5 hPa Calm   1.6 km/h 78% 0 mm 0 W/m2
23:50 19.5 °C 15.6 °C 1017.8 hPa West 1.6 km/h 3.2 km/h 78% 0 mm 0 W/m2
Knjazevac, Serbia
Compliments of Weather Underground - 2 mb